Time;durP1;ratioP1;P1;durP2;ratioP2;P2;SDS_P1;SDS_P2;PMS_P1;PMS_P2;Temp;Humidity;BMP_temperature;BMP_pressure;BME280_temperature;BME280_humidity;BME280_pressure;Samples;Min_cycle;Max_cycle;Signal;HPM_P1;HPM_P2
2021/10/03 00:01:31;;;;;;;;;;;;;;;8.85;100.00;100679.94;6395371;27;19923;-72
2021/10/03 00:04:35;;;;;;;;;;;;;;;8.84;100.00;100680.81;6365767;27;20297;-72
2021/10/03 00:07:38;;;;;;;;;;;;;;;8.84;100.00;100685.19;6401129;27;20398;-72
2021/10/03 00:10:38;;;;;;;;;;;;;;;8.80;100.00;100687.06;6401153;27;19927;-72
2021/10/03 00:13:39;;;;;;;;;;;;;;;8.78;100.00;100683.69;6401050;27;19930;-75
2021/10/03 00:16:40;;;;;;;;;;;;;;;8.73;100.00;100677.00;6382747;27;19923;-75
2021/10/03 00:19:41;;;;;;;;;;;;;;;8.72;100.00;100676.16;6400824;27;19975;-72
2021/10/03 00:22:42;;;;;;;;;;;;;;;8.72;100.00;100685.72;6382354;27;19923;-72
2021/10/03 00:25:42;;;;;;;;;;;;;;;8.74;100.00;100678.69;6382545;27;19926;-76
2021/10/03 00:28:43;;;;;;;;;;;;;;;8.75;100.00;100677.78;6382327;27;20319;-72
2021/10/03 00:31:44;;;;;;;;;;;;;;;8.74;100.00;100689.94;6400571;27;20022;-72
2021/10/03 00:34:45;;;;;;;;;;;;;;;8.71;100.00;100689.22;6400653;27;19927;-73
2021/10/03 00:37:45;;;;;;;;;;;;;;;8.66;100.00;100692.03;6400561;27;19930;-76
2021/10/03 00:40:46;;;;;;;;;;;;;;;8.60;100.00;100681.88;6400442;27;20278;-76
2021/10/03 00:43:47;;;;;;;;;;;;;;;8.62;100.00;100683.50;6382012;27;20290;-76
2021/10/03 00:46:48;;;;;;;;;;;;;;;8.65;100.00;100677.34;6400341;27;19927;-76
2021/10/03 00:49:49;;;;;;;;;;;;;;;8.64;100.00;100678.25;6381793;27;19934;-76
2021/10/03 00:52:50;;;;;;;;;;;;;;;8.71;100.00;100678.81;6381405;27;19976;-76
2021/10/03 00:55:50;;;;;;;;;;;;;;;8.64;100.00;100670.44;6400340;27;20022;-76
2021/10/03 00:58:51;;;;;;;;;;;;;;;8.60;100.00;100671.47;6400314;27;19923;-76
2021/10/03 01:01:52;;;;;;;;;;;;;;;8.59;100.00;100675.00;6399786;27;19945;-76
2021/10/03 01:04:53;;;;;;;;;;;;;;;8.56;100.00;100675.97;6400117;27;19954;-76
2021/10/03 01:07:54;;;;;;;;;;;;;;;8.65;100.00;100669.53;6381449;27;19927;-75
2021/10/03 01:10:55;;;;;;;;;;;;;;;8.59;100.00;100670.63;6381425;27;19927;-75
2021/10/03 01:13:56;;;;;;;;;;;;;;;8.56;100.00;100673.34;6399738;27;20373;-75
2021/10/03 01:16:57;;;;;;;;;;;;;;;8.56;100.00;100680.31;6381323;27;19925;-75
2021/10/03 01:19:58;;;;;;;;;;;;;;;8.57;100.00;100675.06;6399424;27;20026;-76
2021/10/03 01:23:03;;;;;;;;;;;;;;;8.60;100.00;100663.69;6399402;27;20327;-75
2021/10/03 01:26:04;;;;;;;;;;;;;;;8.46;100.00;100672.94;6399318;27;20301;-72
2021/10/03 01:29:05;;;;;;;;;;;;;;;8.40;100.00;100672.28;6380661;27;19923;-76
2021/10/03 01:32:06;;;;;;;;;;;;;;;8.41;100.00;100674.84;6380736;27;20266;-75
2021/10/03 01:35:08;;;;;;;;;;;;;;;8.42;100.00;100676.56;6399368;27;19924;-75
2021/10/03 01:38:11;;;;;;;;;;;;;;;8.45;100.00;100678.19;6399253;27;19927;-73
2021/10/03 01:41:12;;;;;;;;;;;;;;;8.35;100.00;100672.47;6398880;27;20201;-73
2021/10/03 01:44:13;;;;;;;;;;;;;;;8.26;100.00;100668.53;6380699;27;19929;-72
2021/10/03 01:47:14;;;;;;;;;;;;;;;8.16;100.00;100668.97;6398865;27;19924;-75
2021/10/03 01:50:15;;;;;;;;;;;;;;;8.15;100.00;100664.66;6398814;27;19923;-72
2021/10/03 01:53:18;;;;;;;;;;;;;;;8.12;100.00;100663.03;6398674;27;19930;-72
2021/10/03 01:56:20;;;;;;;;;;;;;;;8.12;100.00;100665.66;6398642;27;19923;-73
2021/10/03 01:59:21;;;;;;;;;;;;;;;8.15;100.00;100669.88;6345559;27;19967;-75
2021/10/03 02:02:22;;;;;;;;;;;;;;;8.16;100.00;100667.22;6398284;27;19958;-72
2021/10/03 02:05:22;;;;;;;;;;;;;;;7.99;100.00;100659.25;6362154;27;19923;-75
2021/10/03 02:08:23;;;;;;;;;;;;;;;8.00;100.00;100659.19;6398292;27;20575;-75
2021/10/03 02:11:26;;;;;;;;;;;;;;;8.03;100.00;100653.88;6398332;27;19923;-73
2021/10/03 02:14:30;;;;;;;;;;;;;;;8.04;100.00;100665.09;6398256;27;19927;-73
2021/10/03 02:17:31;;;;;;;;;;;;;;;8.00;100.00;100666.16;6379695;27;19923;-72
2021/10/03 02:20:32;;;;;;;;;;;;;;;8.01;100.00;100665.22;6397931;27;19937;-75
2021/10/03 02:23:33;;;;;;;;;;;;;;;7.99;100.00;100673.09;6397923;27;19923;-72
2021/10/03 02:26:33;;;;;;;;;;;;;;;8.00;100.00;100672.19;6397917;27;19947;-72
2021/10/03 02:29:34;;;;;;;;;;;;;;;7.96;100.00;100683.59;6397773;27;19968;-72
2021/10/03 02:32:35;;;;;;;;;;;;;;;7.96;100.00;100686.19;6379415;27;19923;-75
2021/10/03 02:35:38;;;;;;;;;;;;;;;7.94;100.00;100677.63;6379285;27;19962;-72
2021/10/03 02:38:39;;;;;;;;;;;;;;;7.91;100.00;100677.75;6397647;27;19967;-73
2021/10/03 02:41:40;;;;;;;;;;;;;;;7.87;100.00;100684.00;6397563;27;19967;-73
2021/10/03 02:44:41;;;;;;;;;;;;;;;7.88;100.00;100681.31;6379209;27;19927;-73
2021/10/03 02:47:41;;;;;;;;;;;;;;;7.84;100.00;100687.56;6397475;27;19923;-75
2021/10/03 02:50:42;;;;;;;;;;;;;;;7.85;100.00;100685.81;6397463;27;19923;-72
2021/10/03 02:53:43;;;;;;;;;;;;;;;7.85;100.00;100686.63;6379015;27;20025;-72
2021/10/03 02:56:43;;;;;;;;;;;;;;;7.82;100.00;100688.50;6397318;27;20400;-73
2021/10/03 02:59:44;;;;;;;;;;;;;;;7.80;100.00;100687.72;6397029;27;19974;-73
2021/10/03 03:02:45;;;;;;;;;;;;;;;7.80;100.00;100693.78;6397229;27;19976;-73
2021/10/03 03:05:46;;;;;;;;;;;;;;;7.84;100.00;100691.88;6397367;27;20327;-72
2021/10/03 03:08:47;;;;;;;;;;;;;;;7.87;100.00;100700.41;6378819;27;19966;-73
2021/10/03 03:11:47;;;;;;;;;;;;;;;7.84;100.00;100697.94;6378801;27;19923;-72
2021/10/03 03:14:48;;;;;;;;;;;;;;;7.87;100.00;100705.63;6397171;27;19934;-72
2021/10/03 03:17:49;;;;;;;;;;;;;;;7.83;100.00;100709.25;6382755;27;19931;-72
2021/10/03 03:20:49;;;;;;;;;;;;;;;7.85;100.00;100699.63;6383910;27;19936;-72
2021/10/03 03:23:50;;;;;;;;;;;;;;;7.90;100.00;100701.19;6384003;27;19923;-72
2021/10/03 03:26:51;;;;;;;;;;;;;;;7.85;100.00;100698.78;6402320;27;20479;-72
2021/10/03 03:29:51;;;;;;;;;;;;;;;7.87;100.00;100702.19;6383565;27;19999;-72
2021/10/03 03:32:52;;;;;;;;;;;;;;;7.84;100.00;100697.09;6402225;27;19922;-72
2021/10/03 03:35:53;;;;;;;;;;;;;;;7.84;100.00;100710.06;6402077;27;19968;-75
2021/10/03 03:38:54;;;;;;;;;;;;;;;7.78;100.00;100705.13;6402045;27;19958;-75
2021/10/03 03:41:54;;;;;;;;;;;;;;;7.80;100.00;100706.78;6383332;27;20022;-72
2021/10/03 03:44:55;;;;;;;;;;;;;;;7.78;100.00;100711.19;6401852;27;19962;-75
2021/10/03 03:47:56;;;;;;;;;;;;;;;7.75;100.00;100713.03;6401754;27;20218;-75
2021/10/03 03:50:57;;;;;;;;;;;;;;;7.71;100.00;100714.91;6383143;27;19968;-73
2021/10/03 03:53:57;;;;;;;;;;;;;;;7.68;100.00;100715.03;6401631;27;19958;-75
2021/10/03 03:56:58;;;;;;;;;;;;;;;7.69;100.00;100708.09;6401456;27;19942;-73
2021/10/03 03:59:59;;;;;;;;;;;;;;;7.61;100.00;100701.41;6401142;27;19927;-73
2021/10/03 04:02:59;;;;;;;;;;;;;;;7.61;100.00;100703.19;6401410;27;19923;-73
2021/10/03 04:06:00;;;;;;;;;;;;;;;7.51;100.00;100710.47;6365759;27;19945;-75
2021/10/03 04:09:01;;;;;;;;;;;;;;;7.43;100.00;100708.19;6382833;27;20278;-75
2021/10/03 04:12:02;;;;;;;;;;;;;;;7.45;100.00;100708.09;6382665;27;20021;-73
2021/10/03 04:15:03;;;;;;;;;;;;;;;7.39;100.00;100704.00;6401068;27;19923;-73
2021/10/03 04:18:05;;;;;;;;;;;;;;;7.31;100.00;100708.63;6401072;27;20072;-75
2021/10/03 04:21:05;;;;;;;;;;;;;;;7.30;100.00;100703.50;6400910;27;20270;-75
2021/10/03 04:24:06;;;;;;;;;;;;;;;7.29;100.00;100706.97;6400805;27;20366;-73
2021/10/03 04:27:07;;;;;;;;;;;;;;;7.33;100.00;100708.56;6400808;27;19923;-73
2021/10/03 04:30:08;;;;;;;;;;;;;;;7.30;100.00;100706.09;6400068;27;19926;-75
2021/10/03 04:33:08;;;;;;;;;;;;;;;7.19;100.00;100703.91;6400818;27;19923;-73
2021/10/03 04:36:10;;;;;;;;;;;;;;;7.18;100.00;100708.22;6400601;27;19923;-72
2021/10/03 04:39:10;;;;;;;;;;;;;;;7.20;100.00;100708.16;6400595;27;19923;-75
2021/10/03 04:42:11;;;;;;;;;;;;;;;7.20;100.00;100708.16;6400334;27;19923;-72
2021/10/03 04:45:12;;;;;;;;;;;;;;;7.10;100.00;100707.66;6400356;27;19930;-73
2021/10/03 04:48:12;;;;;;;;;;;;;;;7.01;100.00;100697.63;6381963;27;19930;-75
2021/10/03 04:51:13;;;;;;;;;;;;;;;6.98;100.00;100705.50;6400292;27;19923;-75
2021/10/03 04:54:14;;;;;;;;;;;;;;;6.96;100.00;100699.50;6400405;27;20185;-75
2021/10/03 04:57:15;;;;;;;;;;;;;;;6.92;100.00;100700.53;6400132;27;19970;-72
2021/10/03 05:00:16;;;;;;;;;;;;;;;6.86;100.00;100699.84;6381402;27;19923;-75
2021/10/03 05:03:16;;;;;;;;;;;;;;;6.85;100.00;100705.91;6381494;27;19923;-75
2021/10/03 05:06:17;;;;;;;;;;;;;;;6.91;100.00;100704.88;6381559;27;19929;-75
2021/10/03 05:09:18;;;;;;;;;;;;;;;6.86;100.00;100704.19;6399823;27;19930;-75
2021/10/03 05:12:18;;;;;;;;;;;;;;;6.81;100.00;100711.28;6399722;27;19931;-75
2021/10/03 05:15:19;;;;;;;;;;;;;;;6.83;100.00;100710.31;6381224;27;20018;-73
2021/10/03 05:18:20;;;;;;;;;;;;;;;6.88;100.00;100707.59;6399553;27;19934;-73
2021/10/03 05:21:20;;;;;;;;;;;;;;;6.87;100.00;100713.66;6381034;27;19974;-72
2021/10/03 05:24:21;;;;;;;;;;;;;;;6.92;100.00;100713.50;6399389;27;20294;-75
2021/10/03 05:27:22;;;;;;;;;;;;;;;6.93;100.00;100708.25;6399719;27;20327;-75
2021/10/03 05:30:23;;;;;;;;;;;;;;;6.98;100.00;100723.66;6405526;27;19923;-75
2021/10/03 05:33:23;;;;;;;;;;;;;;;7.00;100.00;100727.03;6425140;27;19947;-73
2021/10/03 05:36:24;;;;;;;;;;;;;;;7.03;100.00;100724.34;6406735;27;19923;-75
2021/10/03 05:39:25;;;;;;;;;;;;;;;7.10;100.00;100727.56;6405421;27;20300;-75
2021/10/03 05:42:26;;;;;;;;;;;;;;;7.21;100.00;100730.63;6424645;27;19922;-75
2021/10/03 05:45:27;;;;;;;;;;;;;;;7.25;100.00;100722.69;6406164;27;19945;-76
2021/10/03 05:48:28;;;;;;;;;;;;;;;7.29;100.00;100722.56;6406235;27;19922;-72
2021/10/03 05:51:29;;;;;;;;;;;;;;;7.34;100.00;100724.09;6424561;27;19926;-75
2021/10/03 05:54:29;;;;;;;;;;;;;;;7.49;100.00;100719.22;6406195;27;19958;-73
2021/10/03 05:57:30;;;;;;;;;;;;;;;7.58;100.00;100724.94;6405959;27;20399;-75
2021/10/03 06:00:31;;;;;;;;;;;;;;;7.61;100.00;100726.56;6424266;27;19923;-72
2021/10/03 06:03:32;;;;;;;;;;;;;;;7.70;100.00;100728.81;6424201;27;20033;-73
2021/10/03 06:06:33;;;;;;;;;;;;;;;7.85;100.00;100730.81;6405678;27;20373;-73
2021/10/03 06:09:34;;;;;;;;;;;;;;;7.99;100.00;100732.88;6424240;27;19923;-73
2021/10/03 06:12:35;;;;;;;;;;;;;;;8.10;100.00;100727.25;6388203;27;20399;-73
2021/10/03 06:15:37;;;;;;;;;;;;;;;8.24;100.00;100737.09;6423968;27;19923;-73
2021/10/03 06:18:38;;;;;;;;;;;;;;;8.39;100.00;100735.63;6387445;27;19971;-75
2021/10/03 06:21:42;;;;;;;;;;;;;;;8.52;100.00;100736.81;6395958;27;19927;-76
2021/10/03 06:24:42;;;;;;;;;;;;;;;8.65;100.00;100737.19;6405088;27;19968;-76
2021/10/03 06:27:43;;;;;;;;;;;;;;;8.82;100.00;100739.06;6405645;27;20296;-75
2021/10/03 06:30:44;;;;;;;;;;;;;;;8.95;100.00;100740.22;6423779;27;19983;-75
2021/10/03 06:33:44;;;;;;;;;;;;;;;9.08;100.00;100736.19;6423539;27;19922;-75
2021/10/03 06:36:45;;;;;;;;;;;;;;;9.25;100.00;100742.41;6423561;27;20266;-75
2021/10/03 06:39:46;;;;;;;;;;;;;;;9.39;100.00;100742.63;6423467;27;19967;-75
2021/10/03 06:42:47;;;;;;;;;;;;;;;9.54;100.00;100742.84;6387738;27;19923;-75
2021/10/03 06:45:47;;;;;;;;;;;;;;;9.67;100.00;100741.34;6423415;27;19930;-75
2021/10/03 06:48:48;;;;;;;;;;;;;;;9.83;100.00;100750.16;6423514;27;20014;-75
2021/10/03 06:51:49;;;;;;;;;;;;;;;9.97;100.00;100746.91;6420370;27;19927;-76
2021/10/03 06:54:50;;;;;;;;;;;;;;;10.16;100.00;100748.63;6397477;27;19923;-76
2021/10/03 06:57:50;;;;;;;;;;;;;;;10.29;100.00;100752.31;6397407;27;19923;-76
2021/10/03 07:00:51;;;;;;;;;;;;;;;10.49;100.00;100761.81;6397271;27;19945;-75
2021/10/03 07:03:54;;;;;;;;;;;;;;;10.64;100.00;100752.38;6361320;27;20393;-75
2021/10/03 07:06:54;;;;;;;;;;;;;;;10.80;100.00;100755.06;6397144;27;19923;-75
2021/10/03 07:09:55;;;;;;;;;;;;;;;10.97;100.00;100755.03;6404327;27;19927;-72
2021/10/03 07:12:56;;;;;;;;;;;;;;;11.15;100.00;100762.84;6391686;27;19929;-72
2021/10/03 07:15:56;;;;;;;;;;;;;;;11.38;100.00;100764.25;6392465;27;19937;-72
2021/10/03 07:18:57;;;;;;;;;;;;;;;11.58;100.00;100755.34;6422895;27;20341;-76
2021/10/03 07:21:58;;;;;;;;;;;;;;;11.77;100.00;100757.81;6387146;27;19927;-72
2021/10/03 07:24:58;;;;;;;;;;;;;;;11.97;100.00;100757.59;6404352;27;19980;-76
2021/10/03 07:27:59;;;;;;;;;;;;;;;12.13;100.00;100764.56;6422839;27;19926;-76
2021/10/03 07:30:59;;;;;;;;;;;;;;;12.36;100.00;100763.28;6404233;27;19975;-75
2021/10/03 07:34:00;;;;;;;;;;;;;;;12.54;100.00;100757.00;6403710;27;20373;-76
2021/10/03 07:37:03;;;;;;;;;;;;;;;12.78;100.00;100754.69;6403271;27;20316;-76
2021/10/03 07:40:05;;;;;;;;;;;;;;;13.03;97.80;100759.34;6396833;27;19923;-76
2021/10/03 07:43:06;;;;;;;;;;;;;;;13.23;95.87;100765.13;6378308;27;19923;-75
2021/10/03 07:46:07;;;;;;;;;;;;;;;13.41;99.52;100760.59;6378218;27;19939;-72
2021/10/03 07:49:07;;;;;;;;;;;;;;;13.58;96.03;100759.53;6378145;27;19974;-76
2021/10/03 07:52:08;;;;;;;;;;;;;;;13.78;92.85;100755.66;6399187;27;19923;-75
2021/10/03 07:55:09;;;;;;;;;;;;;;;14.01;89.91;100757.66;6382101;27;20281;-75
2021/10/03 07:58:10;;;;;;;;;;;;;;;14.18;91.31;100753.94;6397240;27;20420;-72
2021/10/03 08:01:10;;;;;;;;;;;;;;;14.29;87.51;100748.84;6409037;27;19950;-72
2021/10/03 08:04:11;;;;;;;;;;;;;;;14.44;87.86;100756.66;6388729;27;19923;-72
2021/10/03 08:07:12;;;;;;;;;;;;;;;14.63;84.80;100756.28;6426787;27;20372;-75
2021/10/03 08:10:13;;;;;;;;;;;;;;;14.80;81.64;100750.75;6408374;27;20479;-75
2021/10/03 08:13:14;;;;;;;;;;;;;;;15.01;79.41;100751.09;6426848;27;19926;-75
2021/10/03 08:16:15;;;;;;;;;;;;;;;15.22;73.86;100747.94;6408191;27;20025;-75
2021/10/03 08:19:16;;;;;;;;;;;;;;;15.39;72.09;100752.00;6408100;27;19930;-72
2021/10/03 08:22:17;;;;;;;;;;;;;;;15.51;77.01;100754.59;6408119;27;20400;-75
2021/10/03 08:25:18;;;;;;;;;;;;;;;15.69;73.19;100752.47;6426509;27;19930;-72
2021/10/03 08:28:19;;;;;;;;;;;;;;;15.79;75.12;100754.44;6426593;27;19923;-72
2021/10/03 08:31:19;;;;;;;;;;;;;;;15.98;70.60;100754.81;6390495;27;19923;-76
2021/10/03 08:34:21;;;;;;;;;;;;;;;16.15;71.83;100750.94;6407736;27;20329;-76
2021/10/03 08:37:22;;;;;;;;;;;;;;;16.37;69.28;100749.34;6407701;27;20257;-75
2021/10/03 08:40:23;;;;;;;;;;;;;;;16.58;67.56;100746.94;6426128;27;19975;-76
2021/10/03 08:43:23;;;;;;;;;;;;;;;16.70;62.50;100738.09;6426444;27;20325;-76
2021/10/03 08:46:25;;;;;;;;;;;;;;;16.78;62.83;100738.38;6407420;27;19922;-72
2021/10/03 08:49:26;;;;;;;;;;;;;;;16.89;61.92;100733.13;6426026;27;19923;-75
2021/10/03 08:52:27;;;;;;;;;;;;;;;16.99;57.62;100737.72;6425910;27;19923;-76
2021/10/03 08:55:27;;;;;;;;;;;;;;;17.23;59.90;100732.31;6407162;27;19948;-75
2021/10/03 08:58:28;;;;;;;;;;;;;;;17.31;56.17;100730.75;6389910;27;19930;-75
2021/10/03 09:01:45;;;;;;;;;;;;;;;17.34;58.92;100734.94;6398355;27;19930;-76
2021/10/03 09:04:46;;;;;;;;;;;;;;;17.57;58.65;100727.84;6399805;27;20025;-75
2021/10/03 09:08:16;;;;;;;;;;;;;;;17.70;57.45;100725.88;6399544;27;20330;-75
2021/10/03 09:11:16;;;;;;;;;;;;;;;17.71;53.65;100724.94;6385832;27;20014;-72
2021/10/03 09:14:34;;;;;;;;;;;;;;;17.81;54.46;100716.28;6397895;27;19923;-75
2021/10/03 09:17:34;;;;;;;;;;;;;;;17.96;55.04;100709.78;6399401;27;19930;-76
2021/10/03 09:20:35;;;;;;;;;;;;;;;18.12;55.68;100710.22;6399270;27;19923;-73
2021/10/03 09:23:36;;;;;;;;;;;;;;;18.40;55.21;100710.53;6399175;27;20284;-76
2021/10/03 09:27:01;;;;;;;;;;;;;;;18.59;54.86;100709.00;6399591;27;19934;-72
2021/10/03 09:30:07;;;;;;;;;;;;;;;18.59;49.98;100703.72;6399099;27;19923;-75
2021/10/03 09:33:08;;;;;;;;;;;;;;;18.88;54.10;100709.19;6399339;27;20063;-75
2021/10/03 09:36:10;;;;;;;;;;;;;;;18.84;50.76;100705.13;6397714;27;19939;-76
2021/10/03 09:39:11;;;;;;;;;;;;;;;18.90;51.98;100699.31;6397507;27;19927;-75
2021/10/03 09:42:15;;;;;;;;;;;;;;;19.05;49.52;100702.47;6398781;27;20396;-76
2021/10/03 09:45:25;;;;;;;;;;;;;;;19.20;51.67;100695.84;6397315;27;19961;-76
2021/10/03 09:48:26;;;;;;;;;;;;;;;19.43;50.42;100693.81;6381547;27;19923;-72
2021/10/03 09:51:27;;;;;;;;;;;;;;;19.39;48.67;100689.78;6398587;27;20350;-75
2021/10/03 09:54:28;;;;;;;;;;;;;;;19.46;48.34;100684.78;6398597;27;19927;-76
2021/10/03 09:57:29;;;;;;;;;;;;;;;19.52;50.71;100686.91;6397243;27;19998;-75
2021/10/03 10:00:30;;;;;;;;;;;;;;;19.53;50.22;100688.56;6409294;27;19927;-75
2021/10/03 10:03:36;;;;;;;;;;;;;;;19.71;46.79;100691.41;6424061;27;19923;-75
2021/10/03 10:06:37;;;;;;;;;;;;;;;19.88;48.29;100684.59;6424121;27;19923;-75
2021/10/03 10:09:38;;;;;;;;;;;;;;;20.04;50.48;100684.06;6423959;27;19930;-76
2021/10/03 10:12:53;;;;;;;;;;;;;;;20.07;46.87;100684.59;6405329;27;19964;-76
2021/10/03 10:15:53;;;;;;;;;;;;;;;20.14;43.46;100674.28;6424239;27;19923;-76
2021/10/03 10:19:12;;;;;;;;;;;;;;;20.11;47.26;100674.56;6423948;27;19935;-76
2021/10/03 10:22:18;;;;;;;;;;;;;;;20.35;48.06;100671.47;6423632;27;19923;-74
2021/10/03 10:25:35;;;;;;;;;;;;;;;20.40;43.33;100663.09;6404755;27;19948;-76
2021/10/03 10:28:37;;;;;;;;;;;;;;;20.42;46.09;100667.25;6423518;27;19927;-76
2021/10/03 10:31:58;;;;;;;;;;;;;;;20.68;47.65;100659.56;6404992;27;19922;-76
2021/10/03 10:35:07;;;;;;;;;;;;;;;20.75;43.55;100651.03;6423127;27;19927;-76
2021/10/03 10:38:13;;;;;;;;;;;;;;;20.82;43.98;100650.31;6423239;27;20308;-76
2021/10/03 10:41:34;;;;;;;;;;;;;;;20.70;45.35;100641.69;6404630;27;19923;-77
2021/10/03 10:44:36;;;;;;;;;;;;;;;20.90;44.36;100645.09;6404108;27;19922;-76
2021/10/03 10:47:36;;;;;;;;;;;;;;;20.99;45.08;100646.03;6404534;27;19922;-77
2021/10/03 10:50:49;;;;;;;;;;;;;;;21.13;45.85;100642.91;6404594;27;19923;-77
2021/10/03 10:54:09;;;;;;;;;;;;;;;21.28;41.95;100632.63;6404425;27;20373;-77
2021/10/03 10:57:10;;;;;;;;;;;;;;;21.26;42.33;100631.09;6404358;27;20021;-77
2021/10/03 11:00:22;;;;;;;;;;;;;;;21.27;40.05;100627.44;6404059;27;19926;-77
2021/10/03 11:03:41;;;;;;;;;;;;;;;21.33;41.66;100626.84;6404940;27;19923;-76
2021/10/03 11:06:50;;;;;;;;;;;;;;;21.24;43.29;100619.81;6422579;27;19974;-77
2021/10/03 11:10:00;;;;;;;;;;;;;;;21.38;40.88;100621.94;6422664;27;19950;-77
2021/10/03 11:13:21;;;;;;;;;;;;;;;21.52;41.92;100623.28;6422762;27;19922;-77
2021/10/03 11:16:28;;;;;;;;;;;;;;;21.56;37.28;100615.81;6404097;27;20006;-75
2021/10/03 11:19:36;;;;;;;;;;;;;;;21.70;37.31;100615.31;6404312;27;19930;-71
2021/10/03 11:22:37;;;;;;;;;;;;;;;21.86;36.76;100615.44;6403865;27;19923;-71
2021/10/03 11:25:38;;;;;;;;;;;;;;;21.84;39.60;100605.97;6403863;27;20381;-72
2021/10/03 11:28:48;;;;;;;;;;;;;;;21.81;39.29;100600.97;6403924;27;19998;-72
2021/10/03 11:31:50;;;;;;;;;;;;;;;21.84;36.62;100604.13;6403878;27;19930;-74
2021/10/03 11:35:12;;;;;;;;;;;;;;;21.72;35.79;100595.59;6404286;27;19926;-74
2021/10/03 11:38:13;;;;;;;;;;;;;;;21.65;34.62;100583.91;6406678;27;19923;-74
2021/10/03 11:41:13;;;;;;;;;;;;;;;21.85;34.98;100595.19;6427453;27;20292;-75
2021/10/03 11:44:20;;;;;;;;;;;;;;;21.95;37.15;100595.13;6408847;27;19976;-75
2021/10/03 11:47:21;;;;;;;;;;;;;;;22.02;33.99;100582.88;6427328;27;19929;-71
2021/10/03 11:50:26;;;;;;;;;;;;;;;21.99;36.62;100582.34;6427242;27;19923;-75
2021/10/03 11:53:30;;;;;;;;;;;;;;;22.13;38.00;100582.63;6408248;27;19930;-75
2021/10/03 11:56:35;;;;;;;;;;;;;;;22.31;34.79;100584.41;6408401;27;20478;-75
2021/10/03 11:59:36;;;;;;;;;;;;;;;22.23;33.04;100576.34;6426821;27;20006;-72
2021/10/03 12:02:38;;;;;;;;;;;;;;;22.15;35.22;100579.78;6426919;27;19926;-72
2021/10/03 12:05:39;;;;;;;;;;;;;;;22.24;34.39;100578.06;6408339;27;19922;-72
2021/10/03 12:08:39;;;;;;;;;;;;;;;22.23;34.36;100573.69;6426892;27;19927;-72
2021/10/03 12:11:51;;;;;;;;;;;;;;;22.23;34.54;100571.91;6391028;27;19927;-72
2021/10/03 12:14:51;;;;;;;;;;;;;;;22.18;34.67;100570.69;6426712;27;20377;-73
2021/10/03 12:17:52;;;;;;;;;;;;;;;22.02;34.59;100558.94;6408271;27;19975;-72
2021/10/03 12:20:55;;;;;;;;;;;;;;;22.16;34.65;100557.56;6407852;27;19922;-76
2021/10/03 12:24:03;;;;;;;;;;;;;;;21.93;33.98;100555.41;6426497;27;19957;-72
2021/10/03 12:27:03;;;;;;;;;;;;;;;21.91;35.22;100557.38;6426494;27;19923;-76
2021/10/03 12:30:04;;;;;;;;;;;;;;;21.81;34.26;100553.16;6408239;27;19923;-74
2021/10/03 12:33:05;;;;;;;;;;;;;;;21.71;35.27;100551.41;6426425;27;19966;-77
2021/10/03 12:36:06;;;;;;;;;;;;;;;21.53;38.60;100551.44;6426838;27;19923;-76
2021/10/03 12:39:07;;;;;;;;;;;;;;;21.62;35.66;100551.50;6426194;27;20448;-73
2021/10/03 12:42:12;;;;;;;;;;;;;;;21.62;34.04;100551.50;6407861;27;19927;-74
2021/10/03 12:45:13;;;;;;;;;;;;;;;21.80;35.46;100546.16;6426161;27;20395;-73
2021/10/03 12:48:16;;;;;;;;;;;;;;;21.95;34.35;100544.63;6407243;27;20325;-73
2021/10/03 12:51:16;;;;;;;;;;;;;;;21.89;34.12;100546.09;6389861;27;19923;-73
2021/10/03 12:54:17;;;;;;;;;;;;;;;21.85;34.50;100550.03;6425969;27;20284;-73
2021/10/03 12:57:18;;;;;;;;;;;;;;;21.76;34.13;100540.31;6426314;27;19930;-73
2021/10/03 13:00:21;;;;;;;;;;;;;;;21.75;35.72;100533.38;6407516;27;20184;-72
2021/10/03 13:03:22;;;;;;;;;;;;;;;21.82;35.27;100542.38;6389931;27;19923;-72
2021/10/03 13:06:23;;;;;;;;;;;;;;;21.71;35.21;100534.66;6407022;27;19923;-72
2021/10/03 13:09:23;;;;;;;;;;;;;;;21.82;34.59;100537.06;6407008;27;20396;-72
2021/10/03 13:12:24;;;;;;;;;;;;;;;21.79;36.12;100540.03;6406957;27;20021;-76
2021/10/03 13:15:25;;;;;;;;;;;;;;;21.81;33.92;100542.53;6406733;27;19929;-76
2021/10/03 13:18:25;;;;;;;;;;;;;;;21.73;32.49;100538.81;6425310;27;20168;-76
2021/10/03 13:21:26;;;;;;;;;;;;;;;21.75;34.78;100533.38;6406515;27;19923;-77
2021/10/03 13:24:26;;;;;;;;;;;;;;;21.72;36.87;100531.00;6425224;27;20463;-74
2021/10/03 13:27:27;;;;;;;;;;;;;;;21.70;33.29;100528.53;6406606;27;19946;-74
2021/10/03 13:30:28;;;;;;;;;;;;;;;21.72;34.13;100531.84;6406319;27;20293;-74
2021/10/03 13:33:28;;;;;;;;;;;;;;;21.60;34.63;100522.47;6388931;27;19929;-77
2021/10/03 13:36:31;;;;;;;;;;;;;;;21.55;36.05;100516.78;6424729;27;20384;-74
2021/10/03 13:39:32;;;;;;;;;;;;;;;21.41;35.17;100520.75;6406187;27;19926;-74
2021/10/03 13:42:32;;;;;;;;;;;;;;;21.32;35.78;100517.22;6371589;27;19923;-73
2021/10/03 13:45:34;;;;;;;;;;;;;;;21.27;33.24;100510.69;6405930;27;19969;-72
2021/10/03 13:48:35;;;;;;;;;;;;;;;21.21;34.82;100512.16;6405791;27;19966;-74
2021/10/03 13:51:35;;;;;;;;;;;;;;;21.22;36.45;100505.84;6405688;27;19922;-73
2021/10/03 13:54:36;;;;;;;;;;;;;;;21.29;34.03;100512.22;6405871;27;20391;-73
2021/10/03 13:57:37;;;;;;;;;;;;;;;21.23;34.12;100504.88;6424262;27;20322;-72
2021/10/03 14:00:37;;;;;;;;;;;;;;;21.19;34.28;100506.16;6404463;27;19930;-76
2021/10/03 14:03:38;;;;;;;;;;;;;;;21.03;33.46;100506.00;6405575;27;20380;-76
2021/10/03 14:06:38;;;;;;;;;;;;;;;21.00;36.48;100506.28;6405403;27;20405;-76
2021/10/03 14:09:39;;;;;;;;;;;;;;;20.95;35.23;100503.25;6424077;27;19962;-75
2021/10/03 14:12:40;;;;;;;;;;;;;;;20.84;36.46;100507.78;6423941;27;20119;-72
2021/10/03 14:15:40;;;;;;;;;;;;;;;20.81;34.09;100493.97;6387884;27;19934;-72
2021/10/03 14:18:41;;;;;;;;;;;;;;;20.79;34.59;100496.78;6388162;27;20404;-76
2021/10/03 14:21:41;;;;;;;;;;;;;;;20.76;35.57;100496.25;6404989;27;19930;-75
2021/10/03 14:24:42;;;;;;;;;;;;;;;20.79;35.95;100496.78;6423512;27;19922;-76
2021/10/03 14:27:43;;;;;;;;;;;;;;;20.67;36.34;100503.28;6387762;27;19923;-70
2021/10/03 14:30:43;;;;;;;;;;;;;;;20.59;37.14;100504.03;6387599;27;19923;-72
2021/10/03 14:33:44;;;;;;;;;;;;;;;20.46;37.00;100495.53;6423552;27;19927;-72
2021/10/03 14:36:45;;;;;;;;;;;;;;;20.44;35.59;100500.97;6387456;27;19922;-72
2021/10/03 14:39:45;;;;;;;;;;;;;;;20.47;35.42;100497.22;6423527;27;19933;-72
2021/10/03 14:42:47;;;;;;;;;;;;;;;20.38;35.35;100490.97;6423111;27;19923;-76
2021/10/03 14:45:47;;;;;;;;;;;;;;;20.35;35.48;100491.28;6404559;27;19923;-76
2021/10/03 14:48:48;;;;;;;;;;;;;;;20.31;36.12;100487.25;6423034;27;19923;-72
2021/10/03 14:51:49;;;;;;;;;;;;;;;20.32;37.02;100497.72;6422837;27;20396;-73
2021/10/03 14:54:49;;;;;;;;;;;;;;;20.26;37.36;100487.69;6423002;27;19959;-73
2021/10/03 14:57:50;;;;;;;;;;;;;;;20.15;36.52;100492.31;6422833;27;19934;-73
2021/10/03 15:00:51;;;;;;;;;;;;;;;20.16;37.32;100491.34;6403782;27;20018;-76
2021/10/03 15:03:51;;;;;;;;;;;;;;;20.05;38.31;100495.00;6404282;27;19927;-77
2021/10/03 15:06:52;;;;;;;;;;;;;;;19.93;37.94;100491.69;6422837;27;20381;-76
2021/10/03 15:09:52;;;;;;;;;;;;;;;19.82;40.88;100495.34;6422800;27;20013;-76
2021/10/03 15:12:53;;;;;;;;;;;;;;;19.72;39.93;100497.16;6386953;27;20013;-76
2021/10/03 15:15:53;;;;;;;;;;;;;;;19.64;40.70;100499.66;6422779;27;20022;-77
2021/10/03 15:18:54;;;;;;;;;;;;;;;19.53;40.82;100501.47;6387026;27;19922;-74
2021/10/03 15:21:55;;;;;;;;;;;;;;;19.42;40.45;100492.88;6404013;27;19991;-72
2021/10/03 15:24:56;;;;;;;;;;;;;;;19.33;42.53;100500.66;6404030;27;19929;-72
2021/10/03 15:27:56;;;;;;;;;;;;;;;19.23;43.32;100486.59;6386754;27;19927;-72
2021/10/03 15:30:57;;;;;;;;;;;;;;;19.19;43.43;100498.44;6422510;27;19958;-72
2021/10/03 15:33:57;;;;;;;;;;;;;;;19.08;44.38;100495.91;6403994;27;19922;-72